createdAt,value
2022-07-26T00:01:38.907Z,10.85
2022-07-26T00:04:06.095Z,7.88
2022-07-26T00:06:33.239Z,7.95
2022-07-26T00:09:00.041Z,9.90
2022-07-26T00:11:30.374Z,11.77
2022-07-26T00:13:57.439Z,8.93
2022-07-26T00:16:27.316Z,8.05
2022-07-26T00:18:54.281Z,4.63
2022-07-26T00:21:21.308Z,13.98
2022-07-26T00:23:51.623Z,4.68
2022-07-26T00:26:18.517Z,8.15
2022-07-26T00:28:45.594Z,4.80
2022-07-26T00:31:12.816Z,7.63
2022-07-26T00:33:40.254Z,8.90
2022-07-26T00:36:07.529Z,7.07
2022-07-26T00:38:34.470Z,7.30
2022-07-26T00:41:02.305Z,8.30
2022-07-26T00:43:35.557Z,7.75
2022-07-26T00:46:02.524Z,8.90
2022-07-26T00:48:29.580Z,6.70
2022-07-26T00:50:56.349Z,11.38
2022-07-26T00:53:23.352Z,5.55
2022-07-26T00:55:58.378Z,10.20
2022-07-26T00:58:25.425Z,9.32
2022-07-26T01:00:52.288Z,9.13
2022-07-26T01:03:21.554Z,7.68
2022-07-26T01:05:54.241Z,12.48
2022-07-26T01:08:28.167Z,4.57
2022-07-26T01:10:55.123Z,8.80
2022-07-26T01:13:22.475Z,8.63
2022-07-26T01:15:49.483Z,11.35
2022-07-26T01:18:16.329Z,7.03
2022-07-26T01:20:44.096Z,8.48
2022-07-26T01:23:11.194Z,11.27
2022-07-26T01:25:43.176Z,9.55
2022-07-26T01:28:10.675Z,11.45
2022-07-26T01:30:44.996Z,12.68
2022-07-26T01:33:14.192Z,10.18
2022-07-26T01:35:41.156Z,9.13
2022-07-26T01:38:07.990Z,12.13
2022-07-26T01:40:34.795Z,8.02
2022-07-26T01:43:01.672Z,10.43
2022-07-26T01:45:28.676Z,6.55
2022-07-26T01:47:55.539Z,9.77
2022-07-26T01:50:25.998Z,8.63
2022-07-26T01:52:52.661Z,4.80
2022-07-26T01:55:19.476Z,8.52
2022-07-26T01:57:46.542Z,7.60
2022-07-26T02:00:13.613Z,7.88
2022-07-26T02:02:40.424Z,10.27
2022-07-26T02:05:07.988Z,7.97
2022-07-26T02:07:42.887Z,13.77
2022-07-26T02:10:12.730Z,8.02
2022-07-26T02:12:41.596Z,12.40
2022-07-26T02:15:09.293Z,8.43
2022-07-26T02:17:39.489Z,9.73
2022-07-26T02:20:07.116Z,7.50
2022-07-26T02:22:34.832Z,10.18
2022-07-26T02:25:04.978Z,12.77
2022-07-26T02:27:32.116Z,7.20
2022-07-26T02:29:58.948Z,14.40
2022-07-26T02:32:25.835Z,11.63
2022-07-26T02:34:52.616Z,7.90
2022-07-26T02:37:24.336Z,12.57
2022-07-26T02:39:51.137Z,6.50
2022-07-26T02:42:17.969Z,10.98
2022-07-26T02:44:45.037Z,8.15
2022-07-26T02:47:13.105Z,14.90
2022-07-26T02:49:47.429Z,10.15
2022-07-26T02:52:14.393Z,11.57
2022-07-26T02:54:41.352Z,11.57
2022-07-26T02:57:08.021Z,11.10
2022-07-26T02:59:34.937Z,11.35
2022-07-26T03:02:09.790Z,13.75
2022-07-26T03:04:36.647Z,13.98
2022-07-26T03:07:05.836Z,11.60
2022-07-26T03:09:37.333Z,14.23
2022-07-26T03:12:04.996Z,13.70
2022-07-26T03:14:37.249Z,9.52
2022-07-26T03:17:04.064Z,9.32
2022-07-26T03:19:30.866Z,11.30
2022-07-26T03:21:57.824Z,11.68
2022-07-26T03:24:34.581Z,16.75
2022-07-26T03:27:01.484Z,11.05
2022-07-26T03:29:28.409Z,11.73
2022-07-26T03:32:01.941Z,10.85
2022-07-26T03:34:37.218Z,12.48
2022-07-26T03:37:04.157Z,11.10
2022-07-26T03:39:33.344Z,11.60
2022-07-26T03:42:01.332Z,12.73
2022-07-26T03:44:28.036Z,13.63
2022-07-26T03:46:54.813Z,12.13
2022-07-26T03:49:21.627Z,11.43
2022-07-26T03:51:48.512Z,11.57
2022-07-26T03:54:17.325Z,15.02
2022-07-26T03:56:45.466Z,11.75
2022-07-26T03:59:14.460Z,9.98
2022-07-26T04:01:45.665Z,12.07
2022-07-26T04:04:25.161Z,10.07
2022-07-26T04:06:52.452Z,11.40
2022-07-26T04:09:19.838Z,10.07
2022-07-26T04:11:54.129Z,7.20
2022-07-26T04:14:21.205Z,13.50
2022-07-26T04:16:48.183Z,16.08
2022-07-26T04:19:15.077Z,13.00
2022-07-26T04:21:42.100Z,10.13
2022-07-26T04:24:11.628Z,10.52
2022-07-26T04:26:38.777Z,8.15
2022-07-26T04:29:05.588Z,11.75
2022-07-26T04:31:36.092Z,10.88
2022-07-26T04:34:03.407Z,8.00
2022-07-26T04:36:30.257Z,15.50
2022-07-26T04:38:58.236Z,13.60
2022-07-26T04:41:25.934Z,12.45
2022-07-26T04:43:52.677Z,12.40
2022-07-26T04:46:25.139Z,9.95
2022-07-26T04:48:52.142Z,11.48
2022-07-26T04:51:19.527Z,9.77
2022-07-26T04:53:54.497Z,13.55
2022-07-26T04:56:31.107Z,12.43
2022-07-26T04:58:57.993Z,12.15
2022-07-26T05:01:24.787Z,13.23
2022-07-26T05:03:51.674Z,15.80
2022-07-26T05:06:18.489Z,12.55
2022-07-26T05:08:47.504Z,13.95
2022-07-26T05:11:14.316Z,13.27
2022-07-26T05:13:41.166Z,11.00
2022-07-26T05:16:11.677Z,14.98
2022-07-26T05:18:49.285Z,12.88
2022-07-26T05:21:20.809Z,17.08
2022-07-26T05:23:47.819Z,11.52
2022-07-26T05:26:14.733Z,14.63
2022-07-26T05:28:43.464Z,15.13
2022-07-26T05:31:10.450Z,18.05
2022-07-26T05:33:37.327Z,14.43
2022-07-26T05:36:12.044Z,16.27
2022-07-26T05:38:38.923Z,14.55
2022-07-26T05:41:06.024Z,15.18
2022-07-26T05:43:41.614Z,13.52
2022-07-26T05:46:09.961Z,16.27
2022-07-26T05:48:42.907Z,12.10
2022-07-26T05:51:10.221Z,21.67
2022-07-26T05:53:37.542Z,18.17
2022-07-26T05:56:04.767Z,12.30
2022-07-26T05:58:38.007Z,15.52
2022-07-26T06:01:05.112Z,15.88
2022-07-26T06:03:32.320Z,17.50
2022-07-26T06:05:59.285Z,16.88
2022-07-26T06:08:26.473Z,16.38
2022-07-26T06:10:53.668Z,13.55
2022-07-26T06:13:20.652Z,15.55
2022-07-26T06:15:47.638Z,14.00
2022-07-26T06:18:14.685Z,17.63
2022-07-26T06:20:46.230Z,17.02
2022-07-26T06:23:13.581Z,17.35
2022-07-26T06:25:41.984Z,17.42
2022-07-26T06:28:09.445Z,23.23
2022-07-26T06:30:39.483Z,18.90
2022-07-26T06:33:07.500Z,18.20
2022-07-26T06:35:38.472Z,22.63
2022-07-26T06:38:06.537Z,18.02
2022-07-26T06:40:33.208Z,22.10
2022-07-26T06:43:04.325Z,22.88
2022-07-26T06:45:32.961Z,20.77
2022-07-26T06:48:09.621Z,26.05
2022-07-26T06:50:36.417Z,19.55
2022-07-26T06:53:10.877Z,25.95
2022-07-26T06:55:37.762Z,21.83
2022-07-26T06:58:05.318Z,25.50
2022-07-26T07:00:40.177Z,19.85
2022-07-26T07:03:16.995Z,23.00
2022-07-26T07:05:49.306Z,21.88
2022-07-26T07:08:17.682Z,21.67
2022-07-26T07:10:44.810Z,22.48
2022-07-26T07:13:11.624Z,19.95
2022-07-26T07:15:38.528Z,17.05
2022-07-26T07:18:05.280Z,21.55
2022-07-26T07:20:32.088Z,15.30
2022-07-26T07:22:58.837Z,17.02
2022-07-26T07:25:30.868Z,18.95
2022-07-26T07:27:58.927Z,19.55
2022-07-26T07:30:26.169Z,14.82
2022-07-26T07:32:55.686Z,16.10
2022-07-26T07:35:31.625Z,17.80
2022-07-26T07:38:00.377Z,17.02
2022-07-26T07:40:35.149Z,19.35
2022-07-26T07:43:02.109Z,21.88
2022-07-26T07:45:28.867Z,18.50
2022-07-26T07:47:55.854Z,21.30
2022-07-26T07:50:22.956Z,15.18
2022-07-26T07:52:55.584Z,21.83
2022-07-26T07:55:46.009Z,21.63
2022-07-26T07:58:19.576Z,16.75
2022-07-26T08:00:46.861Z,20.03
2022-07-26T08:03:17.890Z,19.13
2022-07-26T08:05:47.365Z,18.58
2022-07-26T08:08:17.184Z,19.13
2022-07-26T08:10:52.430Z,18.38
2022-07-26T08:13:24.387Z,26.50
2022-07-26T08:15:52.112Z,21.88
2022-07-26T08:18:21.673Z,17.88
2022-07-26T08:20:49.793Z,20.77
2022-07-26T08:23:17.085Z,19.48
2022-07-26T08:25:57.825Z,21.23
2022-07-26T08:28:46.209Z,18.92
2022-07-26T08:31:13.660Z,18.40
2022-07-26T08:33:41.149Z,20.20
2022-07-26T08:36:17.847Z,18.50
2022-07-26T08:38:47.091Z,19.35
2022-07-26T08:41:16.428Z,20.33
2022-07-26T08:43:51.988Z,22.67
2022-07-26T08:46:25.223Z,19.60
2022-07-26T08:48:52.495Z,21.50
2022-07-26T08:51:22.995Z,20.13
2022-07-26T08:53:50.501Z,21.33
2022-07-26T08:56:17.321Z,18.83
2022-07-26T08:58:47.159Z,20.90
2022-07-26T09:01:14.283Z,22.73
2022-07-26T09:03:42.507Z,21.45
2022-07-26T09:06:17.518Z,21.40
2022-07-26T09:11:25.403Z,22.00
2022-07-26T09:13:53.496Z,17.77
2022-07-26T09:16:23.150Z,21.30
2022-07-26T09:18:50.181Z,18.02
2022-07-26T09:21:27.365Z,19.95
2022-07-26T09:23:55.364Z,21.83
2022-07-26T09:26:23.604Z,20.35
2022-07-26T09:29:04.271Z,20.35
2022-07-26T09:31:31.316Z,19.73
2022-07-26T09:33:59.862Z,17.33
2022-07-26T09:36:49.454Z,20.15
2022-07-26T09:39:16.241Z,16.52
2022-07-26T09:41:43.244Z,18.52
2022-07-26T09:44:23.686Z,16.70
2022-07-26T09:46:54.641Z,16.67
2022-07-26T09:49:30.910Z,18.50
2022-07-26T09:52:14.573Z,17.67
2022-07-26T09:54:41.693Z,15.85
2022-07-26T09:57:08.420Z,15.93
2022-07-26T09:59:41.914Z,15.07
2022-07-26T10:02:10.125Z,16.52
2022-07-26T10:04:37.058Z,14.68
2022-07-26T10:07:03.966Z,14.68
2022-07-26T10:09:32.813Z,17.10
2022-07-26T10:12:05.503Z,12.93
2022-07-26T10:14:32.361Z,17.13
2022-07-26T10:16:59.666Z,16.38
2022-07-26T10:19:45.303Z,15.25
2022-07-26T10:22:33.871Z,15.52
2022-07-26T10:25:19.887Z,11.50
2022-07-26T10:27:47.042Z,14.35
2022-07-26T10:30:23.007Z,14.85
2022-07-26T10:33:13.168Z,12.85
2022-07-26T10:35:44.622Z,14.20
2022-07-26T10:38:31.868Z,13.88
2022-07-26T10:41:07.856Z,10.70
2022-07-26T10:43:42.760Z,14.05
2022-07-26T10:46:15.375Z,13.55
2022-07-26T10:48:55.656Z,12.18
2022-07-26T10:51:26.905Z,13.90
2022-07-26T10:54:04.459Z,12.15
2022-07-26T10:56:33.769Z,15.60
2022-07-26T10:59:02.912Z,17.15
2022-07-26T11:01:35.171Z,12.55
2022-07-26T11:04:02.645Z,13.10
2022-07-26T11:06:32.473Z,9.88
2022-07-26T11:09:12.571Z,14.45
2022-07-26T11:11:39.466Z,13.40
2022-07-26T11:14:15.458Z,14.38
2022-07-26T11:16:47.155Z,11.38
2022-07-26T11:19:17.034Z,12.43
2022-07-26T11:21:44.907Z,14.52
2022-07-26T11:24:13.182Z,12.88
2022-07-26T11:26:44.114Z,10.88
2022-07-26T11:29:14.244Z,12.07
2022-07-26T11:31:52.049Z,16.17
2022-07-26T11:34:29.147Z,7.13
2022-07-26T11:36:57.512Z,12.00
2022-07-26T11:39:25.217Z,13.52
2022-07-26T11:42:01.127Z,10.75
2022-07-26T11:44:28.287Z,15.18
2022-07-26T11:46:56.010Z,12.38
2022-07-26T11:50:00.818Z,15.75
2022-07-26T11:52:25.363Z,18.10
2022-07-26T11:54:59.348Z,14.48
2022-07-26T11:57:30.898Z,16.17
2022-07-26T11:59:58.641Z,16.00
2022-07-26T12:02:25.834Z,13.43
2022-07-26T12:05:12.386Z,13.50
2022-07-26T12:07:39.582Z,16.08
2022-07-26T12:10:15.748Z,14.52
2022-07-26T12:12:48.416Z,15.60
2022-07-26T12:15:15.714Z,14.82
2022-07-26T12:17:58.958Z,11.20
2022-07-26T12:20:28.032Z,10.27
2022-07-26T12:22:55.892Z,11.30
2022-07-26T12:25:27.382Z,12.77
2022-07-26T12:27:55.502Z,10.15
2022-07-26T12:30:22.620Z,13.80
2022-07-26T12:32:51.497Z,11.07
2022-07-26T12:35:27.770Z,14.00
2022-07-26T12:37:55.498Z,14.05
2022-07-26T12:40:23.582Z,9.68
2022-07-26T12:42:50.310Z,11.45
2022-07-26T12:45:22.673Z,11.30
2022-07-26T12:48:00.265Z,12.73
2022-07-26T12:50:28.656Z,11.85
2022-07-26T12:53:03.548Z,8.63
2022-07-26T12:55:30.728Z,8.23
2022-07-26T12:58:05.174Z,10.25
2022-07-26T13:00:48.564Z,10.00
2022-07-26T13:03:15.961Z,10.77
2022-07-26T13:05:42.690Z,10.05
2022-07-26T13:08:13.803Z,9.77
2022-07-26T13:10:41.458Z,11.45
2022-07-26T13:13:08.380Z,9.18
2022-07-26T13:15:36.767Z,7.47
2022-07-26T13:18:05.884Z,11.70
2022-07-26T13:20:38.704Z,11.35
2022-07-26T13:23:17.906Z,11.40
2022-07-26T13:25:58.775Z,9.90
2022-07-26T13:28:26.605Z,14.15
2022-07-26T13:30:53.728Z,10.73
2022-07-26T13:33:20.523Z,12.35
2022-07-26T13:35:50.347Z,10.77
2022-07-26T13:38:19.486Z,11.88
2022-07-26T13:40:46.154Z,10.63
2022-07-26T13:43:19.328Z,10.85
2022-07-26T13:45:46.260Z,11.50
2022-07-26T13:48:13.185Z,12.98
2022-07-26T13:50:39.932Z,10.45
2022-07-26T13:53:16.692Z,12.90
2022-07-26T13:55:43.751Z,8.00
2022-07-26T13:58:10.665Z,11.15
2022-07-26T14:00:37.942Z,9.93
2022-07-26T14:03:04.820Z,11.68
2022-07-26T14:05:36.466Z,6.90
2022-07-26T14:08:03.343Z,7.47
2022-07-26T14:10:30.260Z,12.07
2022-07-26T14:12:57.525Z,8.52
2022-07-26T14:15:29.584Z,9.45
2022-07-26T14:17:59.714Z,10.63
2022-07-26T14:20:27.877Z,12.98
2022-07-26T14:23:01.635Z,5.43
2022-07-26T14:25:34.496Z,9.88
2022-07-26T14:28:01.304Z,10.00
2022-07-26T14:30:28.199Z,13.45
2022-07-26T14:32:54.999Z,9.55
2022-07-26T14:35:21.793Z,9.70
2022-07-26T14:37:48.644Z,11.82
2022-07-26T14:40:17.726Z,10.70
2022-07-26T14:42:45.133Z,11.27
2022-07-26T14:45:12.505Z,11.38
2022-07-26T14:47:49.195Z,12.05
2022-07-26T14:50:22.776Z,5.93
2022-07-26T14:52:49.882Z,6.47
2022-07-26T14:58:01.257Z,6.40
2022-07-26T15:00:38.060Z,7.88
2022-07-26T15:03:04.865Z,11.82
2022-07-26T15:05:31.864Z,4.32
2022-07-26T15:08:02.753Z,4.80
2022-07-26T15:10:32.549Z,3.80
2022-07-26T15:13:00.356Z,4.88
2022-07-26T15:15:27.722Z,4.25
2022-07-26T15:17:54.802Z,8.27
2022-07-26T15:20:23.016Z,4.82
2022-07-26T15:22:55.838Z,8.43
2022-07-26T15:25:32.545Z,5.60
2022-07-26T15:28:04.172Z,6.68
2022-07-26T15:30:31.264Z,5.63
2022-07-26T15:33:04.603Z,4.90
2022-07-26T15:35:32.600Z,6.50
2022-07-26T15:38:01.460Z,4.00
2022-07-26T15:40:28.458Z,4.32
2022-07-26T15:42:55.316Z,6.10
2022-07-26T15:45:23.209Z,8.63
2022-07-26T15:47:56.036Z,7.83
2022-07-26T15:50:26.230Z,5.68
2022-07-26T15:52:58.925Z,8.30
2022-07-26T15:55:25.842Z,3.67
2022-07-26T15:57:53.392Z,6.22
2022-07-26T16:00:20.551Z,10.05
2022-07-26T16:02:53.907Z,7.90
2022-07-26T16:05:20.798Z,6.53
2022-07-26T16:07:54.169Z,4.05
2022-07-26T16:10:20.993Z,5.20
2022-07-26T16:12:53.037Z,8.18
2022-07-26T16:15:19.884Z,6.00
2022-07-26T16:17:46.717Z,7.28
2022-07-26T16:20:13.552Z,5.22
2022-07-26T16:22:40.917Z,8.20
2022-07-26T16:25:08.634Z,4.97
2022-07-26T16:27:44.785Z,3.67
2022-07-26T16:30:13.282Z,6.85
2022-07-26T16:32:40.804Z,6.13
2022-07-26T16:35:08.532Z,7.05
2022-07-26T16:37:41.312Z,6.22
2022-07-26T16:40:17.956Z,4.85
2022-07-26T16:42:44.888Z,2.50
2022-07-26T16:45:11.684Z,7.60
2022-07-26T16:47:38.453Z,10.18
2022-07-26T16:50:05.728Z,4.35
2022-07-26T16:52:33.273Z,6.25
2022-07-26T16:55:00.407Z,3.35
2022-07-26T16:57:39.986Z,2.38
2022-07-26T17:00:09.064Z,3.53
2022-07-26T17:02:36.208Z,5.85
2022-07-26T17:05:03.871Z,2.75
2022-07-26T17:07:38.272Z,2.03
2022-07-26T17:10:05.494Z,2.80
2022-07-26T17:12:32.921Z,3.45
2022-07-26T17:15:05.974Z,5.47
2022-07-26T17:17:32.892Z,2.42
2022-07-26T17:19:59.681Z,6.00
2022-07-26T17:22:26.549Z,4.07
2022-07-26T17:24:53.503Z,3.78
2022-07-26T17:27:21.999Z,4.43
2022-07-26T17:29:52.946Z,4.53
2022-07-26T17:32:26.324Z,3.95
2022-07-26T17:34:53.211Z,3.78
2022-07-26T17:37:19.958Z,4.65
2022-07-26T17:39:52.235Z,2.87
2022-07-26T17:42:20.601Z,3.10
2022-07-26T17:44:47.420Z,4.25
2022-07-26T17:47:29.430Z,6.35
2022-07-26T17:52:53.621Z,8.30
2022-07-26T17:55:26.342Z,4.65
2022-07-26T17:57:53.777Z,4.55
2022-07-26T18:00:21.600Z,5.28
2022-07-26T18:02:48.459Z,6.13
2022-07-26T18:05:15.652Z,5.60
2022-07-26T18:07:42.612Z,5.88
2022-07-26T18:10:11.067Z,3.72
2022-07-26T18:12:38.648Z,4.40
2022-07-26T18:15:08.650Z,7.30
2022-07-26T18:17:35.514Z,2.95
2022-07-26T18:20:02.457Z,6.30
2022-07-26T18:22:29.253Z,7.82
2022-07-26T18:24:56.136Z,4.00
2022-07-26T18:27:23.433Z,3.65
2022-07-26T18:29:50.335Z,5.38
2022-07-26T18:32:19.177Z,5.13
2022-07-26T18:34:52.669Z,4.90
2022-07-26T18:37:22.397Z,5.90
2022-07-26T18:39:54.073Z,6.60
2022-07-26T18:42:24.072Z,9.57
2022-07-26T18:44:50.961Z,8.40
2022-07-26T18:47:17.917Z,7.75
2022-07-26T18:49:51.577Z,6.00
2022-07-26T18:52:32.205Z,5.75
2022-07-26T18:55:06.814Z,5.65
2022-07-26T18:57:42.029Z,8.25
2022-07-26T19:00:10.547Z,6.15
2022-07-26T19:02:41.499Z,4.03
2022-07-26T19:05:09.860Z,5.90
2022-07-26T19:07:38.107Z,8.20
2022-07-26T19:10:06.053Z,7.95
2022-07-26T19:12:33.266Z,6.10
2022-07-26T19:15:04.101Z,4.43
2022-07-26T19:17:38.591Z,5.55
2022-07-26T19:20:06.742Z,6.68
2022-07-26T19:22:37.125Z,7.20
2022-07-26T19:25:05.190Z,7.15
2022-07-26T19:27:32.025Z,5.72
2022-07-26T19:29:58.895Z,7.15
2022-07-26T19:32:33.124Z,8.30
2022-07-26T19:35:02.505Z,4.95
2022-07-26T19:37:29.329Z,8.27
2022-07-26T19:39:59.014Z,7.57
2022-07-26T19:42:25.829Z,8.20
2022-07-26T19:44:52.605Z,7.55
2022-07-26T19:47:19.770Z,7.22
2022-07-26T19:49:46.509Z,4.88
2022-07-26T19:52:13.396Z,4.32
2022-07-26T19:54:40.455Z,8.80
2022-07-26T19:57:11.224Z,6.07
2022-07-26T19:59:43.049Z,9.77
2022-07-26T20:02:18.700Z,4.30
2022-07-26T20:04:46.327Z,8.52
2022-07-26T20:07:20.605Z,7.22
2022-07-26T20:09:47.754Z,4.47
2022-07-26T20:12:14.817Z,8.55
2022-07-26T20:14:41.955Z,4.25
2022-07-26T20:17:11.999Z,6.25
2022-07-26T20:19:40.160Z,8.82
2022-07-26T20:22:09.867Z,14.48
2022-07-26T20:24:38.147Z,10.30
2022-07-26T20:27:07.416Z,8.77
2022-07-26T20:29:34.226Z,8.80
2022-07-26T20:32:01.304Z,10.82
2022-07-26T20:34:28.245Z,10.73
2022-07-26T20:37:01.265Z,9.40
2022-07-26T20:39:38.195Z,12.57
2022-07-26T20:42:06.524Z,9.60
2022-07-26T20:44:43.841Z,6.75
2022-07-26T20:47:10.762Z,9.65
2022-07-26T20:49:45.717Z,9.23
2022-07-26T20:52:21.192Z,12.50
2022-07-26T20:54:52.728Z,7.53
2022-07-26T20:57:22.289Z,9.27
2022-07-26T20:59:49.128Z,12.25
2022-07-26T21:02:16.179Z,9.90
2022-07-26T21:04:45.746Z,10.77
2022-07-26T21:07:14.020Z,11.20
2022-07-26T21:09:40.851Z,8.70
2022-07-26T21:12:08.550Z,11.00
2022-07-26T21:14:35.437Z,13.52
2022-07-26T21:17:02.345Z,12.20
2022-07-26T21:19:29.225Z,7.97
2022-07-26T21:22:01.650Z,10.77
2022-07-26T21:24:28.540Z,13.20
2022-07-26T21:27:05.897Z,9.48
2022-07-26T21:29:39.255Z,12.32
2022-07-26T21:32:06.560Z,11.57
2022-07-26T21:34:36.498Z,8.93
2022-07-26T21:37:05.321Z,10.52
2022-07-26T21:39:32.097Z,8.65
2022-07-26T21:42:04.771Z,12.90
2022-07-26T21:44:39.656Z,12.45
2022-07-26T21:47:06.613Z,8.70
2022-07-26T21:49:33.587Z,10.40
2022-07-26T21:52:00.470Z,9.57
2022-07-26T21:54:27.463Z,10.85
2022-07-26T21:56:54.234Z,13.75
2022-07-26T21:59:21.088Z,11.80
2022-07-26T22:01:48.391Z,19.73
2022-07-26T22:04:17.097Z,10.20
2022-07-26T22:06:44.293Z,8.77
2022-07-26T22:09:11.470Z,9.25
2022-07-26T22:11:46.707Z,14.18
2022-07-26T22:14:13.628Z,10.82
2022-07-26T22:16:47.416Z,7.18
2022-07-26T22:19:14.907Z,11.52
2022-07-26T22:21:41.820Z,10.48
2022-07-26T22:24:08.720Z,9.25
2022-07-26T22:26:36.058Z,11.60
2022-07-26T22:29:02.822Z,9.15
2022-07-26T22:31:29.672Z,11.05
2022-07-26T22:33:56.471Z,13.20
2022-07-26T22:36:24.273Z,13.80
2022-07-26T22:38:51.226Z,8.40
2022-07-26T22:41:18.053Z,7.68
2022-07-26T22:43:45.085Z,9.52
2022-07-26T22:46:11.933Z,9.27
2022-07-26T22:48:39.910Z,11.23
2022-07-26T22:51:08.863Z,7.63
2022-07-26T22:53:35.624Z,7.75
2022-07-26T22:56:04.696Z,6.45
2022-07-26T22:58:31.736Z,6.32
2022-07-26T23:00:58.460Z,13.80
2022-07-26T23:03:25.437Z,6.60
2022-07-26T23:05:54.825Z,10.43
2022-07-26T23:08:47.032Z,8.82
2022-07-26T23:11:08.113Z,7.82
2022-07-26T23:13:34.972Z,5.50
2022-07-26T23:16:02.205Z,8.13
2022-07-26T23:18:30.132Z,12.05
2022-07-26T23:20:56.972Z,9.55
2022-07-26T23:23:29.320Z,8.45
2022-07-26T23:25:57.214Z,8.18
2022-07-26T23:28:35.914Z,11.55
2022-07-26T23:31:13.053Z,8.02
2022-07-26T23:33:52.017Z,10.38
2022-07-26T23:36:21.754Z,10.95
2022-07-26T23:38:48.468Z,9.38
2022-07-26T23:41:15.165Z,11.73
2022-07-26T23:43:41.944Z,9.63
2022-07-26T23:46:08.573Z,9.18
2022-07-26T23:48:35.581Z,7.05
2022-07-26T23:51:02.274Z,10.48
2022-07-26T23:53:28.919Z,11.55
2022-07-26T23:55:55.814Z,9.35
2022-07-26T23:58:22.646Z,11.80
